createdAt,value
2018-12-01T00:00:24.600Z,5.78
2018-12-01T00:02:51.541Z,5.75
2018-12-01T00:05:18.466Z,5.73
2018-12-01T00:07:45.430Z,5.76
2018-12-01T00:10:12.307Z,5.66
2018-12-01T00:12:39.227Z,5.63
2018-12-01T00:15:09.071Z,5.61
2018-12-01T00:17:35.980Z,5.61
2018-12-01T00:20:03.786Z,5.64
2018-12-01T00:22:30.687Z,5.66
2018-12-01T00:24:57.597Z,5.63
2018-12-01T00:27:24.531Z,5.61
2018-12-01T00:29:51.435Z,5.60
2018-12-01T00:32:18.363Z,5.61
2018-12-01T00:34:45.270Z,5.62
2018-12-01T00:37:12.154Z,5.58
2018-12-01T00:39:39.042Z,5.59
2018-12-01T00:42:06.054Z,5.61
2018-12-01T00:44:34.161Z,5.54
2018-12-01T00:47:01.670Z,5.63
2018-12-01T00:49:30.115Z,5.59
2018-12-01T00:51:57.130Z,5.58
2018-12-01T00:54:24.038Z,5.60
2018-12-01T00:56:52.918Z,5.57
2018-12-01T00:59:20.096Z,5.63
2018-12-01T01:01:47.107Z,5.63
2018-12-01T01:04:14.042Z,5.63
2018-12-01T01:06:42.352Z,5.66
2018-12-01T01:09:09.337Z,5.62
2018-12-01T01:11:36.240Z,5.62
2018-12-01T01:14:03.200Z,5.67
2018-12-01T01:16:30.098Z,5.71
2018-12-01T01:18:57.218Z,5.71
2018-12-01T01:21:24.238Z,5.75
2018-12-01T01:23:51.743Z,5.76
2018-12-01T01:26:18.658Z,5.68
2018-12-01T01:28:46.095Z,5.69
2018-12-01T01:31:13.074Z,5.66
2018-12-01T01:33:40.003Z,5.65
2018-12-01T01:36:06.934Z,5.59
2018-12-01T01:38:33.835Z,5.57
2018-12-01T01:41:07.252Z,5.52
2018-12-01T01:43:34.968Z,5.57
2018-12-01T01:46:01.893Z,5.57
2018-12-01T01:48:28.826Z,5.54
2018-12-01T01:50:55.759Z,5.57
2018-12-01T01:53:22.687Z,5.57
2018-12-01T01:55:49.628Z,5.57
2018-12-01T01:58:16.537Z,5.49
2018-12-01T02:00:43.462Z,5.45
2018-12-01T02:03:10.403Z,5.43
2018-12-01T02:05:37.344Z,5.42
2018-12-01T02:08:04.263Z,5.37
2018-12-01T02:10:31.186Z,5.35
2018-12-01T02:12:58.082Z,5.33
2018-12-01T02:15:24.992Z,5.33
2018-12-01T02:17:51.927Z,5.32
2018-12-01T02:20:18.870Z,5.25
2018-12-01T02:22:45.855Z,5.22
2018-12-01T02:25:14.566Z,5.21
2018-12-01T02:27:41.521Z,5.27
2018-12-01T02:30:10.516Z,5.35
2018-12-01T02:32:37.454Z,5.43
2018-12-01T02:35:08.082Z,5.49
2018-12-01T02:37:35.027Z,5.55
2018-12-01T02:40:02.063Z,5.57
2018-12-01T02:42:28.975Z,5.61
2018-12-01T02:45:07.625Z,5.62
2018-12-01T02:47:34.606Z,5.60
2018-12-01T02:50:02.177Z,5.49
2018-12-01T02:52:29.103Z,5.40
2018-12-01T02:54:56.006Z,5.40
2018-12-01T02:57:22.963Z,5.36
2018-12-01T02:59:50.213Z,5.30
2018-12-01T03:02:18.653Z,5.29
2018-12-01T03:04:46.825Z,5.21
2018-12-01T03:07:14.683Z,5.17
2018-12-01T03:09:42.764Z,5.14
2018-12-01T03:12:10.538Z,5.19
2018-12-01T03:14:37.927Z,5.20
2018-12-01T03:17:04.894Z,5.17
2018-12-01T03:19:32.386Z,5.17
2018-12-01T03:21:59.312Z,5.18
2018-12-01T03:24:26.247Z,5.11
2018-12-01T03:26:53.182Z,5.13
2018-12-01T03:29:20.106Z,5.10
2018-12-01T03:31:47.012Z,5.07
2018-12-01T03:34:13.933Z,5.05
2018-12-01T03:36:40.935Z,5.02
2018-12-01T03:39:08.850Z,4.99
2018-12-01T03:41:36.250Z,4.99
2018-12-01T03:44:04.335Z,5.01
2018-12-01T03:46:31.259Z,4.99
2018-12-01T03:48:58.222Z,4.98
2018-12-01T03:51:25.127Z,4.93
2018-12-01T03:53:52.039Z,4.94
2018-12-01T03:56:18.966Z,4.99
2018-12-01T03:58:46.003Z,5.00
2018-12-01T04:01:13.730Z,5.10
2018-12-01T04:03:40.650Z,5.12
2018-12-01T04:06:07.567Z,5.13
2018-12-01T04:08:34.775Z,5.11
2018-12-01T04:11:01.720Z,5.19
2018-12-01T04:13:29.262Z,5.21
2018-12-01T04:15:56.224Z,5.23
2018-12-01T04:18:23.198Z,5.22
2018-12-01T04:20:50.130Z,5.26
2018-12-01T04:23:17.050Z,5.28
2018-12-01T04:25:43.989Z,5.29
2018-12-01T04:28:10.895Z,5.30
2018-12-01T04:30:37.783Z,5.30
2018-12-01T04:33:05.004Z,5.29
2018-12-01T04:35:31.927Z,5.29
2018-12-01T04:37:58.819Z,5.31
2018-12-01T04:40:25.727Z,5.28
2018-12-01T04:42:52.611Z,5.33
2018-12-01T04:45:19.550Z,5.34
2018-12-01T04:47:46.457Z,5.35
2018-12-01T04:50:14.227Z,5.35
2018-12-01T04:52:41.249Z,5.37
2018-12-01T04:55:10.215Z,5.36
2018-12-01T04:57:37.098Z,5.36
2018-12-01T05:00:05.920Z,5.36
2018-12-01T05:02:32.817Z,5.40
2018-12-01T05:04:59.694Z,5.36
2018-12-01T05:07:26.580Z,5.33
2018-12-01T05:09:53.471Z,5.28
2018-12-01T05:12:20.378Z,5.33
2018-12-01T05:14:47.272Z,5.35
2018-12-01T05:17:14.162Z,5.35
2018-12-01T05:19:41.042Z,5.35
2018-12-01T05:22:07.970Z,5.34
2018-12-01T05:24:34.892Z,5.37
2018-12-01T05:27:01.796Z,5.37
2018-12-01T05:29:28.715Z,5.39
2018-12-01T05:31:55.634Z,5.39
2018-12-01T05:34:22.549Z,5.41
2018-12-01T05:36:49.459Z,5.38
2018-12-01T05:39:16.371Z,5.41
2018-12-01T05:41:43.319Z,5.45
2018-12-01T05:44:10.222Z,5.41
2018-12-01T05:46:37.150Z,5.34
2018-12-01T05:49:04.251Z,5.43
2018-12-01T05:51:31.166Z,5.43
2018-12-01T05:53:58.074Z,5.43
2018-12-01T05:56:24.979Z,5.38
2018-12-01T05:58:51.894Z,5.40
2018-12-01T06:01:18.824Z,5.43
2018-12-01T06:03:45.730Z,5.40
2018-12-01T06:06:12.625Z,5.43
2018-12-01T06:08:39.551Z,5.46
2018-12-01T06:11:06.451Z,5.45
2018-12-01T06:13:33.367Z,5.40
2018-12-01T06:16:00.298Z,5.34
2018-12-01T06:18:27.219Z,5.33
2018-12-01T06:20:54.120Z,5.33
2018-12-01T06:23:21.032Z,5.29
2018-12-01T06:25:47.971Z,5.34
2018-12-01T06:28:14.870Z,5.34
2018-12-01T06:30:41.750Z,5.25
2018-12-01T06:33:08.663Z,5.25
2018-12-01T06:35:35.559Z,5.19
2018-12-01T06:38:02.459Z,5.12
2018-12-01T06:40:29.355Z,5.07
2018-12-01T06:42:56.270Z,5.13
2018-12-01T06:45:23.166Z,5.07
2018-12-01T06:47:50.063Z,5.06
2018-12-01T06:50:19.662Z,5.04
2018-12-01T06:52:46.576Z,5.03
2018-12-01T06:55:13.810Z,5.05
2018-12-01T06:57:41.324Z,5.01
2018-12-01T07:00:14.227Z,5.05
2018-12-01T07:02:41.664Z,5.10
2018-12-01T07:05:09.622Z,5.07
2018-12-01T07:07:36.539Z,5.05
2018-12-01T07:10:05.922Z,5.04
2018-12-01T07:12:32.826Z,5.06
2018-12-01T07:14:59.729Z,5.07
2018-12-01T07:17:26.654Z,5.10
2018-12-01T07:19:53.543Z,5.09
2018-12-01T07:22:20.454Z,5.11
2018-12-01T07:24:47.370Z,5.07
2018-12-01T07:27:14.314Z,5.11
2018-12-01T07:29:41.216Z,5.13
2018-12-01T07:32:08.122Z,5.12
2018-12-01T07:34:35.049Z,5.16
2018-12-01T07:37:01.942Z,5.15
2018-12-01T07:39:28.886Z,5.18
2018-12-01T07:41:55.792Z,5.20
2018-12-01T07:44:22.725Z,5.22
2018-12-01T07:46:49.634Z,5.19
2018-12-01T07:49:16.559Z,5.23
2018-12-01T07:51:43.479Z,5.23
2018-12-01T07:54:10.393Z,5.23
2018-12-01T07:56:37.319Z,5.26
2018-12-01T07:59:04.730Z,5.29
2018-12-01T08:01:31.626Z,5.29
2018-12-01T08:03:58.546Z,5.36
2018-12-01T08:06:25.438Z,5.38
2018-12-01T08:08:52.360Z,5.42
2018-12-01T08:11:19.254Z,5.40
2018-12-01T08:13:46.186Z,5.42
2018-12-01T08:16:13.099Z,5.46
2018-12-01T08:18:40.014Z,5.51
2018-12-01T08:21:06.934Z,5.53
2018-12-01T08:23:33.834Z,5.55
2018-12-01T08:26:00.767Z,5.58
2018-12-01T08:28:27.659Z,5.60
2018-12-01T08:30:54.562Z,5.64
2018-12-01T08:33:21.442Z,5.67
2018-12-01T08:35:48.368Z,5.73
2018-12-01T08:38:15.258Z,5.74
2018-12-01T08:40:42.220Z,5.75
2018-12-01T08:43:09.123Z,5.78
2018-12-01T08:45:36.076Z,5.82
2018-12-01T08:48:03.011Z,5.86
2018-12-01T08:50:29.914Z,5.88
2018-12-01T08:52:56.822Z,5.93
2018-12-01T08:55:24.086Z,5.97
2018-12-01T08:57:51.671Z,5.99
2018-12-01T09:00:23.728Z,6.04
2018-12-01T09:02:59.922Z,6.06
2018-12-01T09:05:26.827Z,6.08
2018-12-01T09:07:53.716Z,6.11
2018-12-01T09:10:20.666Z,6.12
2018-12-01T09:12:47.551Z,6.16
2018-12-01T09:15:14.525Z,6.18
2018-12-01T09:17:41.421Z,6.17
2018-12-01T09:20:10.328Z,6.19
2018-12-01T09:22:37.605Z,6.23
2018-12-01T09:25:06.302Z,6.27
2018-12-01T09:27:33.195Z,6.29
2018-12-01T09:30:00.095Z,6.33
2018-12-01T09:32:26.999Z,6.32
2018-12-01T09:34:53.913Z,6.31
2018-12-01T09:37:20.801Z,6.35
2018-12-01T09:39:47.710Z,6.40
2018-12-01T09:42:14.607Z,6.45
2018-12-01T09:44:41.523Z,6.48
2018-12-01T09:47:08.431Z,6.52
2018-12-01T09:49:35.315Z,6.55
2018-12-01T09:52:02.224Z,6.55
2018-12-01T09:54:29.117Z,6.58
2018-12-01T09:56:56.027Z,6.64
2018-12-01T09:59:22.963Z,6.66
2018-12-01T10:01:49.863Z,6.69
2018-12-01T10:04:16.750Z,6.73
2018-12-01T10:06:43.654Z,6.78
2018-12-01T10:09:10.551Z,6.79
2018-12-01T10:11:37.455Z,6.84
2018-12-01T10:14:04.631Z,6.88
2018-12-01T10:16:31.953Z,6.90
2018-12-01T10:18:58.831Z,6.93
2018-12-01T10:21:25.745Z,6.97
2018-12-01T10:23:52.638Z,6.97
2018-12-01T10:26:19.584Z,7.03
2018-12-01T10:28:46.445Z,7.10
2018-12-01T10:31:13.356Z,7.07
2018-12-01T10:33:40.255Z,7.09
2018-12-01T10:36:07.171Z,7.09
2018-12-01T10:38:34.136Z,7.11
2018-12-01T10:41:01.052Z,7.15
2018-12-01T10:43:28.196Z,7.14
2018-12-01T10:45:55.087Z,7.21
2018-12-01T10:48:22.027Z,7.25
2018-12-01T10:50:48.943Z,7.25
2018-12-01T10:53:15.898Z,7.24
2018-12-01T10:55:42.814Z,7.28
2018-12-01T10:58:12.343Z,7.26
2018-12-01T11:00:45.709Z,7.28
2018-12-01T11:03:18.331Z,7.34
2018-12-01T11:05:45.411Z,7.35
2018-12-01T11:08:13.539Z,7.38
2018-12-01T11:10:40.435Z,7.38
2018-12-01T11:13:07.372Z,7.30
2018-12-01T11:15:34.298Z,7.30
2018-12-01T11:18:01.236Z,7.30
2018-12-01T11:20:28.726Z,7.33
2018-12-01T11:22:58.049Z,7.37
2018-12-01T11:25:23.120Z,7.45
2018-12-01T11:27:50.107Z,7.44
2018-12-01T11:30:19.364Z,7.46
2018-12-01T11:32:47.085Z,7.47
2018-12-01T11:35:14.772Z,7.46
2018-12-01T11:37:41.699Z,7.57
2018-12-01T11:40:13.684Z,7.57
2018-12-01T11:42:40.685Z,7.60
2018-12-01T11:45:09.830Z,7.56
2018-12-01T11:47:37.022Z,7.60
2018-12-01T11:50:08.481Z,7.58
2018-12-01T11:52:36.516Z,7.63
2018-12-01T11:55:06.738Z,7.58
2018-12-01T11:57:34.994Z,7.59
2018-12-01T12:00:02.912Z,7.61
2018-12-01T12:02:31.296Z,7.60
2018-12-01T12:04:59.577Z,7.49
2018-12-01T12:07:38.840Z,7.47
2018-12-01T12:10:05.863Z,7.59
2018-12-01T12:12:33.025Z,7.61
2018-12-01T12:15:01.134Z,7.61
2018-12-01T12:17:28.784Z,7.56
2018-12-01T12:19:55.730Z,7.59
2018-12-01T12:22:22.645Z,7.62
2018-12-01T12:24:49.535Z,7.68
2018-12-01T12:27:16.442Z,7.72
2018-12-01T12:29:43.368Z,7.73
2018-12-01T12:32:10.298Z,7.69
2018-12-01T12:34:37.232Z,7.67
2018-12-01T12:37:04.258Z,7.61
2018-12-01T12:39:31.166Z,7.51
2018-12-01T12:41:58.054Z,7.51
2018-12-01T12:44:24.971Z,7.53
2018-12-01T12:46:51.871Z,7.60
2018-12-01T12:49:18.783Z,7.58
2018-12-01T12:51:45.722Z,7.62
2018-12-01T12:54:12.647Z,7.62
2018-12-01T12:56:39.560Z,7.68
2018-12-01T12:59:06.455Z,7.74
2018-12-01T13:01:33.534Z,7.79
2018-12-01T13:04:00.532Z,7.78
2018-12-01T13:06:27.446Z,7.74
2018-12-01T13:08:54.338Z,7.76
2018-12-01T13:11:21.247Z,7.79
2018-12-01T13:13:48.146Z,7.78
2018-12-01T13:16:15.039Z,7.73
2018-12-01T13:18:41.926Z,7.71
2018-12-01T13:21:08.836Z,7.74
2018-12-01T13:23:35.731Z,7.72
2018-12-01T13:26:02.663Z,7.72
2018-12-01T13:28:29.567Z,7.70
2018-12-01T13:30:57.755Z,7.73
2018-12-01T13:33:31.550Z,7.77
2018-12-01T13:35:58.477Z,7.78
2018-12-01T13:38:25.828Z,7.83
2018-12-01T13:40:52.739Z,7.83
2018-12-01T13:43:19.659Z,7.82
2018-12-01T13:45:46.582Z,7.82
2018-12-01T13:48:13.486Z,7.83
2018-12-01T13:50:40.398Z,7.81
2018-12-01T13:53:09.163Z,7.81
2018-12-01T13:55:36.051Z,7.81
2018-12-01T13:58:02.980Z,7.80
2018-12-01T14:00:29.875Z,7.82
2018-12-01T14:02:56.795Z,7.83
2018-12-01T14:05:23.699Z,7.77
2018-12-01T14:07:50.617Z,7.76
2018-12-01T14:10:19.331Z,7.76
2018-12-01T14:12:47.491Z,7.73
2018-12-01T14:15:17.408Z,7.72
2018-12-01T14:17:44.350Z,7.72
2018-12-01T14:20:14.804Z,7.67
2018-12-01T14:22:42.159Z,7.66
2018-12-01T14:25:10.020Z,7.63
2018-12-01T14:27:37.379Z,7.60
2018-12-01T14:30:07.902Z,7.56
2018-12-01T14:32:34.902Z,7.55
2018-12-01T14:35:02.132Z,7.50
2018-12-01T14:37:29.049Z,7.42
2018-12-01T14:39:55.948Z,7.41
2018-12-01T14:42:22.831Z,7.41
2018-12-01T14:44:49.741Z,7.40
2018-12-01T14:47:16.632Z,7.34
2018-12-01T14:49:43.523Z,7.37
2018-12-01T14:52:10.437Z,7.31
2018-12-01T14:54:37.354Z,7.24
2018-12-01T14:57:04.726Z,7.19
2018-12-01T14:59:31.655Z,7.16
2018-12-01T15:01:58.583Z,7.13
2018-12-01T15:04:25.495Z,7.11
2018-12-01T15:06:52.395Z,7.13
2018-12-01T15:09:19.307Z,7.10
2018-12-01T15:11:46.212Z,7.09
2018-12-01T15:14:13.118Z,7.07
2018-12-01T15:16:40.039Z,7.08
2018-12-01T15:19:07.050Z,7.01
2018-12-01T15:21:33.922Z,7.03
2018-12-01T15:24:00.840Z,6.97
2018-12-01T15:26:27.764Z,6.90
2018-12-01T15:28:54.776Z,6.88
2018-12-01T15:31:21.761Z,6.86
2018-12-01T15:33:48.787Z,6.82
2018-12-01T15:36:15.708Z,6.79
2018-12-01T15:38:42.695Z,6.71
2018-12-01T15:41:09.630Z,6.71
2018-12-01T15:43:36.570Z,6.69
2018-12-01T15:46:03.497Z,6.67
2018-12-01T15:48:30.402Z,6.65
2018-12-01T15:50:57.332Z,6.59
2018-12-01T15:53:24.239Z,6.57
2018-12-01T15:55:51.160Z,6.53
2018-12-01T15:58:18.065Z,6.53
2018-12-01T16:00:44.994Z,6.52
2018-12-01T16:03:11.900Z,6.49
2018-12-01T16:05:38.835Z,6.52
2018-12-01T16:08:07.117Z,6.50
2018-12-01T16:10:34.037Z,6.50
2018-12-01T16:13:33.056Z,6.47
2018-12-01T16:16:01.355Z,6.43
2018-12-01T16:18:28.283Z,6.44
2018-12-01T16:20:55.219Z,6.43
2018-12-01T16:23:22.136Z,6.43
2018-12-01T16:25:49.047Z,6.47
2018-12-01T16:28:15.931Z,6.49
2018-12-01T16:30:43.955Z,6.52
2018-12-01T16:33:12.528Z,6.52
2018-12-01T16:35:39.430Z,6.52
2018-12-01T16:38:08.069Z,6.52
2018-12-01T16:41:25.348Z,6.51
2018-12-01T16:43:52.241Z,6.52
2018-12-01T16:46:19.161Z,6.49
2018-12-01T16:48:46.075Z,6.22
2018-12-01T16:51:13.006Z,6.50
2018-12-01T16:53:39.908Z,6.52
2018-12-01T16:56:06.806Z,6.48
2018-12-01T16:58:33.734Z,6.51
2018-12-01T17:01:00.633Z,6.53
2018-12-01T17:03:27.546Z,6.52
2018-12-01T17:05:56.015Z,6.56
2018-12-01T17:08:22.914Z,6.53
2018-12-01T17:10:49.848Z,6.56
2018-12-01T17:13:16.750Z,6.56
2018-12-01T17:15:43.682Z,6.55
2018-12-01T17:18:10.587Z,6.56
2018-12-01T17:20:37.476Z,6.57
2018-12-01T17:23:08.004Z,6.60
2018-12-01T17:25:34.923Z,6.58
2018-12-01T17:28:01.856Z,6.60
2018-12-01T17:30:29.143Z,6.63
2018-12-01T17:32:57.231Z,6.65
2018-12-01T17:35:26.116Z,6.66
2018-12-01T17:37:54.205Z,6.67
2018-12-01T17:40:23.997Z,6.72
2018-12-01T17:42:52.703Z,6.71
2018-12-01T17:45:19.629Z,6.74
2018-12-01T17:47:46.559Z,6.75
2018-12-01T17:50:14.568Z,6.78
2018-12-01T17:52:44.079Z,6.81
2018-12-01T17:55:12.343Z,6.82
2018-12-01T17:57:39.286Z,6.85
2018-12-01T18:00:10.142Z,6.87
2018-12-01T18:02:37.059Z,6.88
2018-12-01T18:05:05.483Z,6.89
2018-12-01T18:07:32.387Z,6.90
2018-12-01T18:12:43.872Z,6.96
2018-12-01T18:15:13.935Z,6.99
2018-12-01T18:17:40.867Z,6.97
2018-12-01T18:20:14.872Z,6.98
2018-12-01T18:22:41.875Z,6.98
2018-12-01T18:25:08.967Z,6.94
2018-12-01T18:27:36.233Z,6.95
2018-12-01T18:30:03.738Z,6.94
2018-12-01T18:32:30.653Z,6.91
2018-12-01T18:34:57.557Z,6.98
2018-12-01T18:37:24.427Z,6.98
2018-12-01T18:39:51.334Z,6.95
2018-12-01T18:42:18.218Z,6.95
2018-12-01T18:44:45.115Z,6.96
2018-12-01T18:47:12.010Z,6.98
2018-12-01T18:49:38.910Z,6.99
2018-12-01T18:52:05.839Z,6.98
2018-12-01T18:54:33.093Z,6.96
2018-12-01T18:56:59.992Z,6.94
2018-12-01T18:59:26.898Z,6.90
2018-12-01T19:01:53.789Z,6.90
2018-12-01T19:04:20.695Z,6.88
2018-12-01T19:06:47.748Z,6.86
2018-12-01T19:09:14.660Z,6.84
2018-12-01T19:11:41.572Z,6.84
2018-12-01T19:14:08.462Z,6.81
2018-12-01T19:16:35.362Z,6.82
2018-12-01T19:19:02.254Z,6.88
2018-12-01T19:21:29.155Z,6.90
2018-12-01T19:23:56.086Z,6.88
2018-12-01T19:26:22.984Z,6.86
2018-12-01T19:28:50.245Z,6.89
2018-12-01T19:31:17.179Z,6.93
2018-12-01T19:33:44.090Z,6.90
2018-12-01T19:36:11.036Z,6.94
2018-12-01T19:38:37.959Z,6.97
2018-12-01T19:41:04.979Z,6.96
2018-12-01T19:43:31.899Z,6.95
2018-12-01T19:45:58.815Z,6.89
2018-12-01T19:48:25.744Z,6.88
2018-12-01T19:50:52.688Z,6.86
2018-12-01T19:53:19.618Z,6.82
2018-12-01T19:55:47.871Z,6.77
2018-12-01T19:58:18.284Z,6.78
2018-12-01T20:00:49.751Z,6.76
2018-12-01T20:03:18.027Z,6.73
2018-12-01T20:05:44.954Z,6.73
2018-12-01T20:08:12.963Z,6.71
2018-12-01T20:10:48.611Z,6.71
2018-12-01T20:13:46.562Z,6.71
2018-12-01T20:16:20.903Z,6.71
2018-12-01T20:18:47.854Z,6.69
2018-12-01T20:21:14.767Z,6.71
2018-12-01T20:23:41.683Z,6.70
2018-12-01T20:26:08.590Z,6.74
2018-12-01T20:28:35.502Z,6.73
2018-12-01T20:31:02.419Z,6.70
2018-12-01T20:33:29.335Z,6.69
2018-12-01T20:36:08.611Z,6.63
2018-12-01T20:38:40.938Z,6.58
2018-12-01T20:41:07.838Z,6.58
2018-12-01T20:43:34.758Z,6.56
2018-12-01T20:46:01.671Z,6.52
2018-12-01T20:48:29.179Z,6.50
2018-12-01T20:50:56.217Z,6.47
2018-12-01T20:53:23.143Z,6.43
2018-12-01T20:55:52.664Z,6.39
2018-12-01T21:00:53.844Z,6.35
2018-12-01T21:03:20.758Z,6.35
2018-12-01T21:05:47.725Z,6.33
2018-12-01T21:08:14.655Z,6.31
2018-12-01T21:10:46.495Z,6.31
2018-12-01T21:13:13.397Z,6.28
2018-12-01T21:15:40.317Z,6.25
2018-12-01T21:18:07.246Z,6.28
2018-12-01T21:20:34.162Z,6.28
2018-12-01T21:23:01.085Z,6.31
2018-12-01T21:25:28.226Z,6.30
2018-12-01T21:27:56.959Z,6.32
2018-12-01T21:30:24.935Z,6.32
2018-12-01T21:32:53.958Z,6.33
2018-12-01T21:35:20.906Z,6.34
2018-12-01T21:37:47.819Z,6.34
2018-12-01T21:40:17.035Z,6.34
2018-12-01T21:42:44.070Z,6.33
2018-12-01T21:45:12.077Z,6.36
2018-12-01T21:47:38.994Z,6.36
2018-12-01T21:50:12.255Z,6.36
2018-12-01T21:52:39.202Z,6.32
2018-12-01T21:55:08.031Z,6.35
2018-12-01T21:57:34.940Z,6.34
2018-12-01T22:00:01.935Z,6.35
2018-12-01T22:02:28.833Z,6.34
2018-12-01T22:04:55.760Z,6.36
2018-12-01T22:07:22.672Z,6.35
2018-12-01T22:09:49.590Z,6.33
2018-12-01T22:12:16.549Z,6.30
2018-12-01T22:14:43.468Z,6.32
2018-12-01T22:17:10.379Z,6.32
2018-12-01T22:22:11.088Z,6.34
2018-12-01T22:24:38.021Z,6.31
2018-12-01T22:27:04.936Z,6.31
2018-12-01T22:29:31.844Z,6.32
2018-12-01T22:31:58.775Z,6.31
2018-12-01T22:34:26.607Z,6.32
2018-12-01T22:36:52.662Z,6.33
2018-12-01T22:39:19.576Z,6.31
2018-12-01T22:41:46.506Z,6.29
2018-12-01T22:44:13.414Z,6.31
2018-12-01T22:46:40.374Z,6.31
2018-12-01T22:49:07.304Z,6.29
2018-12-01T22:51:34.257Z,6.31
2018-12-01T22:54:01.156Z,6.33
2018-12-01T22:56:28.938Z,6.29
2018-12-01T22:58:55.022Z,6.31
2018-12-01T23:01:21.999Z,6.34
2018-12-01T23:03:48.975Z,6.30
2018-12-01T23:06:15.895Z,6.33
2018-12-01T23:08:42.802Z,6.36
2018-12-01T23:11:09.756Z,6.34
2018-12-01T23:13:36.676Z,6.34
2018-12-01T23:16:03.633Z,6.31
2018-12-01T23:18:30.550Z,6.29
2018-12-01T23:20:57.459Z,6.27
2018-12-01T23:23:24.374Z,6.21
2018-12-01T23:25:51.271Z,6.15
2018-12-01T23:28:18.204Z,6.16
2018-12-01T23:30:49.512Z,6.13
2018-12-01T23:33:19.038Z,6.13
2018-12-01T23:35:45.973Z,6.05
2018-12-01T23:38:12.929Z,6.10
2018-12-01T23:40:40.359Z,6.07
2018-12-01T23:43:07.381Z,6.08
2018-12-01T23:45:34.727Z,6.09
2018-12-01T23:48:01.685Z,6.09
2018-12-01T23:50:28.599Z,6.08
2018-12-01T23:52:58.899Z,6.08
2018-12-01T23:55:25.825Z,6.03
2018-12-01T23:57:52.750Z,6.06
